Grande Portogallo — IBZW — position and weather

sailwx.info

Track history (hours):
 
Tides and Currents Weather Stations Pressure Air Temp Water Temp Dewpoint Dewpoint Depression Visibility Wind Speed Wind Dir Waves Ship Positions

Grande Portogallo

Last reported at 2015-Apr-01 12:26 UTC. Time now 2015-Apr-02 07:47 UTC.
Position N 40°45' E 029°33'.

Length 176 m; draft 7.3 m.

Type: Cargo ship. MMSI: 247065500.

Date/timePositionNaut miles runAvg speedWind from/ knotsBaromVisibWave heightAir tempDewpointWater temp
2015-Apr-01 12:26N 40°45' E 029°33'1211.4
2015-Apr-01 11:21N 40°42' E 029°17'10 4.6
2015-Apr-01 09:12N 40°43' E 029°04'1218.2
2015-Apr-01 08:33N 40°44' E 028°48'12915.5
2015-Apr-01 00:15N 40°00' E 026°09'16017.8
2015-Mar-31 15:17N 37°41' E 024°30'  
2015-Mar-23 01:30N 35°52' E 014°43'10 2.3
2015-Mar-22 21:18N 35°54' E 014°31'16 8.8
2015-Mar-22 19:27N 36°08' E 014°21'1715.5
2015-Mar-22 18:21N 36°15' E 014°01'  
Track history (hours):
 
Tides and Currents Weather Stations Pressure Air Temp Water Temp Dewpoint Dewpoint Depression Visibility Wind Speed Wind Dir Waves Ship Positions

Grande Portogallo

Last reported at 2015-Apr-01 12:26 UTC. Time now 2015-Apr-02 07:47 UTC.
Position N 40°45' E 029°33'.

Length 176 m; draft 7.3 m.

Type: Cargo ship. MMSI: 247065500.

Date/timePositionNaut miles runAvg speedWind from/ knotsBaromVisibWave heightAir tempDewpointWater temp
2015-Apr-01 12:26N 40°45' E 029°33'1211.4
2015-Apr-01 11:21N 40°42' E 029°17'10 4.6
2015-Apr-01 09:12N 40°43' E 029°04'1218.2
2015-Apr-01 08:33N 40°44' E 028°48'12915.5
2015-Apr-01 00:15N 40°00' E 026°09'16017.8
2015-Mar-31 15:17N 37°41' E 024°30'  
2015-Mar-23 01:30N 35°52' E 014°43'10 2.3
2015-Mar-22 21:18N 35°54' E 014°31'16 8.8
2015-Mar-22 19:27N 36°08' E 014°21'1715.5
2015-Mar-22 18:21N 36°15' E 014°01'  

Dump ship's entire track history